Time;durP1;ratioP1;P1;durP2;ratioP2;P2;SDS_P1;SDS_P2;PMS_P1;PMS_P2;Temp;Humidity;BMP_temperature;BMP_pressure;BME280_temperature;BME280_humidity;BME280_pressure;Samples;Min_cycle;Max_cycle;Signal;HPM_P1;HPM_P2
2021/11/24 00:01:03;;;;;;;9.33;5.23;;;4.60;99.90;;;5.49;100.00;99090.75;5056092;28;20812;-80
2021/11/24 00:03:31;;;;;;;9.77;5.20;;;4.60;99.90;;;5.49;100.00;99096.75;5056851;28;20880;-80
2021/11/24 00:06:01;;;;;;;5.77;4.90;;;4.70;99.90;;;5.51;100.00;99094.06;5063358;28;20499;-80
2021/11/24 00:08:30;;;;;;;7.73;4.80;;;4.70;99.90;;;5.51;100.00;99096.66;5055226;28;20506;-79
2021/11/24 00:10:59;;;;;;;8.63;5.20;;;4.70;99.90;;;5.51;100.00;99087.09;5054274;28;20465;-79
2021/11/24 00:13:28;;;;;;;7.20;5.10;;;4.70;99.90;;;5.50;100.00;99082.84;5062570;28;21023;-79
2021/11/24 00:15:56;;;;;;;6.80;4.57;;;4.70;99.90;;;5.52;100.00;99091.31;5058978;28;20913;-79
2021/11/24 00:18:25;;;;;;;8.90;5.53;;;4.70;99.90;;;5.51;100.00;99089.69;5059571;28;20502;-80
2021/11/24 00:20:54;;;;;;;7.50;5.37;;;4.70;99.90;;;5.53;100.00;99077.41;5064393;28;20537;-80
2021/11/24 00:23:24;;;;;;;9.60;5.60;;;4.70;99.90;;;5.54;100.00;99079.06;5055244;28;20581;-79
2021/11/24 00:25:52;;;;;;;11.40;6.37;;;4.80;99.90;;;5.56;100.00;99077.13;5052358;28;20468;-80
2021/11/24 00:28:21;;;;;;;13.57;6.17;;;4.80;99.90;;;5.56;100.00;99078.91;5055648;28;20882;-80
2021/11/24 00:30:49;;;;;;;11.87;5.50;;;4.80;99.90;;;5.55;100.00;99074.69;5062771;28;20562;-80
2021/11/24 00:33:18;;;;;;;11.30;5.37;;;4.80;99.90;;;5.54;100.00;99079.06;5049942;28;20496;-79
2021/11/24 00:35:47;;;;;;;9.47;5.03;;;4.80;99.90;;;5.54;100.00;99076.47;5051024;28;20961;-80
2021/11/24 00:38:15;;;;;;;8.63;5.90;;;4.80;99.90;;;5.55;100.00;99072.88;5049294;28;20491;-80
2021/11/24 00:40:45;;;;;;;7.83;5.10;;;4.80;99.90;;;5.55;100.00;99065.09;5057366;28;20488;-80
2021/11/24 00:43:14;;;;;;;7.50;5.27;;;4.70;99.90;;;5.57;100.00;99077.97;5058380;28;20484;-79
2021/11/24 00:45:43;;;;;;;11.87;5.40;;;4.80;99.90;;;5.56;100.00;99071.94;5059916;28;20464;-80
2021/11/24 00:48:12;;;;;;;10.87;5.30;;;4.70;99.90;;;5.54;100.00;99073.88;5054921;28;20797;-79
2021/11/24 00:50:40;;;;;;;7.80;4.87;;;4.80;99.90;;;5.54;100.00;99078.22;5055537;28;20488;-80
2021/11/24 00:53:09;;;;;;;11.13;4.83;;;4.80;99.90;;;5.54;100.00;99068.69;5055930;28;20589;-79
2021/11/24 00:55:37;;;;;;;11.60;5.57;;;4.80;99.90;;;5.55;100.00;99075.50;5061657;28;20520;-80
2021/11/24 00:58:07;;;;;;;9.47;5.10;;;4.80;99.90;;;5.56;100.00;99076.31;5057090;28;20537;-80
2021/11/24 01:00:36;;;;;;;12.60;5.00;;;4.80;99.90;;;5.56;100.00;99061.56;5057801;28;20503;-80
2021/11/24 01:03:05;;;;;;;11.30;5.47;;;4.80;99.90;;;5.55;100.00;99070.31;5052657;28;20497;-80
2021/11/24 01:05:33;;;;;;;6.10;4.20;;;4.70;99.90;;;5.53;100.00;99067.03;5064321;28;20444;-80
2021/11/24 01:08:02;;;;;;;9.30;5.00;;;4.70;99.90;;;5.55;100.00;99062.53;5051524;28;20475;-79
2021/11/24 01:10:30;;;;;;;8.83;5.07;;;4.70;99.90;;;5.55;100.00;99062.53;5047422;28;20542;-80
2021/11/24 01:12:59;;;;;;;7.90;5.00;;;4.70;99.90;;;5.54;100.00;99063.50;5052705;28;21042;-80
2021/11/24 01:15:29;;;;;;;7.90;5.17;;;4.80;99.90;;;5.52;100.00;99067.16;5058125;28;20468;-80
2021/11/24 01:17:58;;;;;;;8.63;5.30;;;4.80;99.90;;;5.54;100.00;99062.66;5061623;28;20513;-80
2021/11/24 01:20:26;;;;;;;8.37;5.37;;;4.80;99.90;;;5.55;100.00;99059.91;5052411;28;20482;-79
2021/11/24 01:22:55;;;;;;;12.73;6.53;;;4.90;99.90;;;5.57;100.00;99067.59;5061860;28;20499;-79
2021/11/24 01:25:23;;;;;;;9.73;5.60;;;4.90;99.90;;;5.59;100.00;99066.50;5051293;28;20507;-80
2021/11/24 01:27:52;;;;;;;8.50;6.07;;;4.80;99.90;;;5.59;100.00;99061.31;5064984;28;20522;-80
2021/11/24 01:30:21;;;;;;;8.07;5.07;;;4.80;99.90;;;5.62;100.00;99055.06;5057126;28;21085;-81
2021/11/24 01:32:51;;;;;;;11.43;6.40;;;4.90;99.90;;;5.63;100.00;99050.66;5056462;28;20460;-80
2021/11/24 01:35:19;;;;;;;12.03;5.57;;;4.90;99.90;;;5.62;100.00;99049.06;5053564;28;20453;-80
2021/11/24 01:37:48;;;;;;;8.80;5.50;;;4.90;99.90;;;5.64;100.00;99047.13;5066220;28;20445;-80
2021/11/24 01:40:17;;;;;;;8.67;5.87;;;4.90;99.90;;;5.65;100.00;99053.97;5057374;28;20457;-80
2021/11/24 01:42:46;;;;;;;13.90;5.60;;;4.80;99.90;;;5.66;100.00;99050.44;5066960;28;20444;-80
2021/11/24 01:45:19;;;;;;;9.43;5.23;;;4.90;99.90;;;5.67;100.00;99049.47;5056527;28;20873;-79
2021/11/24 01:47:51;;;;;;;14.70;5.87;;;4.90;99.90;;;5.66;100.00;99045.25;5057956;28;20516;-80
2021/11/24 01:50:21;;;;;;;9.20;6.10;;;4.90;99.90;;;5.67;100.00;99037.31;5057399;28;20477;-80
2021/11/24 01:52:50;;;;;;;11.43;6.93;;;4.90;99.90;;;5.69;100.00;99043.22;5069313;28;20456;-80
2021/11/24 01:55:19;;;;;;;10.23;6.30;;;4.90;99.90;;;5.71;100.00;99032.69;5058035;28;20478;-80
2021/11/24 01:57:51;;;;;;;9.70;5.90;;;4.90;99.90;;;5.71;100.00;99033.50;5060528;28;20958;-80
2021/11/24 02:00:24;;;;;;;12.83;6.00;;;4.90;99.90;;;5.70;100.00;99029.25;5058701;28;20464;-80
2021/11/24 02:02:54;;;;;;;10.90;6.17;;;5.00;99.90;;;5.70;100.00;99029.25;5057969;28;20542;-79
2021/11/24 02:05:23;;;;;;;9.70;6.33;;;4.90;99.90;;;5.70;100.00;99018.88;5058039;28;20484;-80
2021/11/24 02:07:52;;;;;;;9.70;6.20;;;4.90;99.90;;;5.72;100.00;99023.94;5060855;28;20441;-80
2021/11/24 02:10:23;;;;;;;9.23;6.47;;;4.90;99.90;;;5.71;100.00;99023.13;5053627;28;20445;-80
2021/11/24 02:12:53;;;;;;;13.00;6.50;;;4.90;99.90;;;5.71;100.00;99019.72;5056012;28;20446;-80
2021/11/24 02:15:22;;;;;;;12.00;6.50;;;4.90;99.90;;;5.69;100.00;99016.44;5062843;28;20574;-79
2021/11/24 02:17:53;;;;;;;8.70;5.50;;;4.90;99.90;;;5.70;100.00;99012.88;5056479;28;20793;-80
2021/11/24 02:23:17;;;;;;;8.40;5.63;;;4.90;99.90;;;5.69;100.00;99008.66;5070549;27;20538;-78
2021/11/24 02:25:46;;;;;;;8.37;5.40;;;4.80;99.90;;;5.69;100.00;99003.47;5035292;28;20450;-78
2021/11/24 02:28:18;;;;;;;10.43;5.60;;;4.80;99.90;;;5.67;100.00;99000.16;5031384;28;20814;-78
2021/11/24 02:30:47;;;;;;;6.50;4.60;;;4.80;99.90;;;5.69;100.00;99003.47;5044583;28;20935;-79
2021/11/24 02:33:15;;;;;;;10.13;5.40;;;4.90;99.90;;;5.69;100.00;99006.06;5036466;28;20875;-78
2021/11/24 02:35:45;;;;;;;10.17;6.03;;;4.90;99.90;;;5.68;100.00;99001.81;5033933;28;20509;-78
2021/11/24 02:38:18;;;;;;;14.13;5.90;;;4.90;99.90;;;5.70;100.00;99000.72;5038952;28;20794;-78
2021/11/24 02:40:47;;;;;;;8.87;6.10;;;4.90;99.90;;;5.71;100.00;98997.19;5033153;28;20441;-78
2021/11/24 02:43:15;;;;;;;9.80;5.90;;;4.90;99.90;;;5.74;100.00;98999.50;5034559;28;21021;-78
2021/11/24 02:45:44;;;;;;;8.63;6.27;;;4.90;99.90;;;5.75;100.00;98997.75;5035199;28;20988;-78
2021/11/24 02:48:20;;;;;;;8.23;5.03;;;4.90;99.90;;;5.74;100.00;98996.91;5045854;28;20445;-78
2021/11/24 02:50:51;;;;;;;12.07;5.70;;;4.90;99.90;;;5.76;100.00;98995.00;5042614;28;21038;-78
2021/11/24 02:53:25;;;;;;;9.30;6.63;;;5.00;99.90;;;5.72;100.00;98993.66;5041003;28;20544;-78
2021/11/24 02:55:54;;;;;;;10.17;6.00;;;5.00;99.90;;;5.73;100.00;98981.47;5040284;28;20511;-78
2021/11/24 02:58:24;;;;;;;9.83;5.70;;;4.90;99.90;;;5.73;100.00;98973.69;5047553;28;20458;-78
2021/11/24 03:00:54;;;;;;;9.63;5.43;;;4.90;99.90;;;5.73;100.00;98971.09;5038422;28;20466;-78
2021/11/24 03:03:23;;;;;;;8.43;5.53;;;4.90;99.90;;;5.74;100.00;98975.31;5040237;28;20512;-78
2021/11/24 03:05:52;;;;;;;13.03;5.53;;;4.90;99.90;;;5.75;100.00;98974.38;5042998;28;20497;-78
2021/11/24 03:08:22;;;;;;;9.50;6.57;;;4.90;99.90;;;5.75;100.00;98967.44;5039619;28;20487;-78
2021/11/24 03:10:51;;;;;;;10.83;6.10;;;4.90;99.90;;;5.76;100.00;98973.44;5044236;28;20958;-78
2021/11/24 03:13:19;;;;;;;13.00;6.93;;;4.90;99.90;;;5.74;100.00;98970.13;5045234;28;20499;-78
2021/11/24 03:15:48;;;;;;;10.03;5.53;;;5.00;99.90;;;5.74;100.00;98964.94;5035592;28;20469;-78
2021/11/24 03:18:16;;;;;;;9.67;6.27;;;5.00;99.90;;;5.75;100.00;98966.59;5050729;28;20460;-78
2021/11/24 03:20:45;;;;;;;14.13;5.73;;;5.00;99.90;;;5.75;100.00;98961.41;5035545;28;20863;-78
2021/11/24 03:23:14;;;;;;;12.63;5.60;;;5.00;99.90;;;5.73;100.00;98953.75;5051966;28;20496;-78
2021/11/24 03:25:44;;;;;;;8.37;5.07;;;4.90;99.90;;;5.75;100.00;98958.81;5035304;28;21000;-78
2021/11/24 03:28:12;;;;;;;10.03;6.67;;;4.90;99.90;;;5.76;100.00;98952.69;5045728;28;20903;-78
2021/11/24 03:30:41;;;;;;;9.33;6.40;;;4.90;99.90;;;5.75;100.00;98945.84;5046127;28;20823;-78
2021/11/24 03:33:09;;;;;;;9.47;5.97;;;4.90;99.90;;;5.75;100.00;98941.47;5040542;28;20498;-78
2021/11/24 03:35:38;;;;;;;13.33;6.00;;;4.90;99.90;;;5.75;100.00;98945.84;5026998;28;20513;-78
2021/11/24 03:38:07;;;;;;;14.27;6.03;;;4.90;99.90;;;5.75;100.00;98935.47;5030905;28;20453;-78
2021/11/24 03:40:37;;;;;;;9.03;5.23;;;4.90;99.90;;;5.74;100.00;98936.41;5028874;28;20461;-79
2021/11/24 03:43:07;;;;;;;10.10;6.20;;;4.90;99.90;;;5.75;100.00;98930.28;5029461;28;20547;-78
2021/11/24 03:45:38;;;;;;;9.03;5.60;;;4.90;99.90;;;5.72;100.00;98930.53;5033183;28;20461;-79
2021/11/24 03:48:09;;;;;;;11.23;5.70;;;5.00;99.90;;;5.70;100.00;98933.25;5028555;28;20454;-79
2021/11/24 03:50:39;;;;;;;11.87;6.00;;;4.90;99.90;;;5.68;100.00;98929.16;5032785;28;20500;-79
2021/11/24 03:53:07;;;;;;;23.40;7.83;;;4.90;99.90;;;5.69;100.00;98934.25;5034561;28;20442;-79
2021/11/24 03:55:36;;;;;;;12.93;6.60;;;5.00;99.90;;;5.65;100.00;98934.63;5034364;28;20874;-79
2021/11/24 03:58:07;;;;;;;8.37;5.60;;;4.90;99.90;;;5.65;100.00;98929.44;5025743;28;20882;-79
2021/11/24 04:00:36;;;;;;;13.07;6.37;;;4.90;99.90;;;5.58;100.00;98929.16;5026467;28;20513;-79
2021/11/24 04:03:07;;;;;;;12.90;5.47;;;4.90;99.90;;;5.53;100.00;98919.19;5023566;28;20583;-79
2021/11/24 04:05:36;;;;;;;8.90;5.67;;;4.90;99.90;;;5.51;100.00;98910.72;5028301;28;20549;-79
2021/11/24 04:08:05;;;;;;;12.73;6.40;;;4.90;99.90;;;5.53;100.00;98918.34;5027785;28;20501;-79
2021/11/24 04:10:34;;;;;;;9.70;6.40;;;4.80;99.90;;;5.53;100.00;98910.56;5026831;28;20519;-79
2021/11/24 04:13:03;;;;;;;8.67;5.77;;;4.80;99.90;;;5.56;100.00;98913.72;5034105;28;20609;-79
2021/11/24 04:15:33;;;;;;;9.47;5.53;;;4.80;99.90;;;5.54;100.00;98915.63;5021937;28;20534;-79
2021/11/24 04:18:01;;;;;;;11.83;6.13;;;4.90;99.90;;;5.54;100.00;98913.03;5031283;28;20519;-81
2021/11/24 04:20:30;;;;;;;7.77;5.37;;;4.80;99.90;;;5.54;100.00;98907.03;5028994;28;20450;-79
2021/11/24 04:22:59;;;;;;;12.40;5.70;;;4.80;99.90;;;5.52;100.00;98904.56;5023631;28;20575;-79
2021/11/24 04:25:27;;;;;;;16.23;7.63;;;4.90;99.90;;;5.52;100.00;98909.75;5020036;28;20516;-78
2021/11/24 04:27:57;;;;;;;10.67;6.57;;;4.90;99.90;;;5.56;100.00;98903.34;5026485;28;21320;-77
2021/11/24 04:30:25;;;;;;;10.07;6.07;;;4.90;99.90;;;5.55;100.00;98909.47;5028416;28;20828;-78
2021/11/24 04:32:56;;;;;;;9.63;6.27;;;4.80;99.90;;;5.58;100.00;98906.63;5039498;28;20835;-78
2021/11/24 04:35:24;;;;;;;9.57;5.50;;;4.90;99.90;;;5.56;100.00;98910.28;5020798;28;20489;-78
2021/11/24 04:37:53;;;;;;;12.43;5.77;;;4.80;99.90;;;5.54;100.00;98907.84;5021265;28;20462;-79
2021/11/24 04:40:22;;;;;;;15.43;9.00;;;4.80;99.90;;;5.56;100.00;98902.50;5026500;28;20548;-79
2021/11/24 04:42:52;;;;;;;9.10;5.77;;;4.80;99.90;;;5.56;100.00;98905.94;5021102;28;20555;-78
2021/11/24 04:45:21;;;;;;;11.07;6.07;;;4.90;99.90;;;5.55;100.00;98904.28;5020472;28;20511;-78
2021/11/24 04:47:49;;;;;;;10.87;7.00;;;5.00;99.90;;;5.55;100.00;98899.09;5023184;28;20525;-78
2021/11/24 04:50:20;;;;;;;12.00;6.43;;;5.10;99.90;;;5.56;100.00;98903.34;5027096;28;20454;-78
2021/11/24 04:52:49;;;;;;;13.10;6.13;;;5.10;99.90;;;5.50;100.00;98896.09;5019967;28;20459;-78
2021/11/24 04:55:17;;;;;;;17.03;6.60;;;4.90;99.90;;;5.47;100.00;98898.16;5022643;28;20904;-78
2021/11/24 04:57:49;;;;;;;10.27;6.70;;;4.90;99.90;;;5.44;100.00;98895.81;5010460;28;20459;-78
2021/11/24 05:00:20;;;;;;;9.70;5.93;;;4.80;99.90;;;5.46;100.00;98889.53;5027374;28;20465;-78
2021/11/24 05:02:50;;;;;;;11.47;6.70;;;4.90;99.90;;;5.47;100.00;98887.78;5024313;28;20481;-79
2021/11/24 05:05:24;;;;;;;12.70;7.07;;;4.80;99.90;;;5.48;100.00;98877.25;5027372;28;20441;-78
2021/11/24 05:07:53;;;;;;;10.13;6.60;;;4.90;99.90;;;5.47;100.00;98880.81;5029134;28;20510;-78
2021/11/24 05:10:22;;;;;;;17.23;7.10;;;4.80;99.90;;;5.48;100.00;98879.84;5026634;28;20474;-78
2021/11/24 05:12:51;;;;;;;12.07;6.10;;;5.00;99.90;;;5.49;100.00;98873.69;5031991;28;20512;-78
2021/11/24 05:15:22;;;;;;;13.10;7.20;;;4.90;99.90;;;5.48;100.00;98879.03;5029377;28;20457;-78
2021/11/24 05:17:55;;;;;;;12.90;7.20;;;4.80;99.90;;;5.43;100.00;98865.66;5023297;28;21056;-76
2021/11/24 05:20:28;;;;;;;16.83;7.43;;;4.70;99.90;;;5.44;100.00;98869.88;5024661;28;20516;-76
2021/11/24 05:22:59;;;;;;;12.97;6.80;;;4.70;99.90;;;5.43;100.00;98874.25;5033353;28;20516;-75
2021/11/24 05:25:29;;;;;;;20.30;7.57;;;4.70;99.90;;;5.46;100.00;98868.78;5019543;28;21360;-75
2021/11/24 05:27:58;;;;;;;13.27;7.00;;;4.80;99.90;;;5.46;100.00;98876.56;5031887;28;20446;-76
2021/11/24 05:30:27;;;;;;;13.70;7.60;;;4.80;99.90;;;5.44;100.00;98865.53;5027146;28;20532;-76
2021/11/24 05:32:57;;;;;;;13.97;7.70;;;4.70;99.90;;;5.48;100.00;98868.66;5032385;28;20503;-76
2021/11/24 05:35:28;;;;;;;14.20;6.93;;;4.70;99.90;;;5.49;100.00;98862.50;5028628;28;20455;-76
2021/11/24 05:37:59;;;;;;;13.17;6.90;;;4.80;99.90;;;5.51;100.00;98863.22;5030661;28;20459;-76
2021/11/24 05:40:27;;;;;;;10.67;6.50;;;4.80;99.90;;;5.52;100.00;98862.22;5021310;28;20494;-76
2021/11/24 05:42:56;;;;;;;14.77;7.10;;;4.80;99.90;;;5.54;100.00;98874.13;5025476;28;20846;-76
2021/11/24 05:45:37;;;;;;;11.07;7.30;;;4.80;99.90;;;5.56;100.00;98867.03;5022104;28;20458;-76
2021/11/24 05:48:10;;;;;;;15.50;7.27;;;4.80;99.90;;;5.58;100.00;98856.53;5018097;28;20450;-76
2021/11/24 05:50:45;;;;;;;11.50;6.03;;;4.90;99.90;;;5.56;100.00;98848.03;5031913;28;20455;-76
2021/11/24 05:53:16;;;;;;;10.27;6.40;;;4.90;99.90;;;5.55;100.00;98852.41;5024431;28;20500;-76
2021/11/24 05:55:44;;;;;;;14.93;7.23;;;4.90;99.90;;;5.51;100.00;98855.44;5025669;28;20477;-77
2021/11/24 05:58:16;;;;;;;10.90;5.50;;;4.90;99.90;;;5.51;100.00;98856.25;5023751;28;20447;-76
2021/11/24 06:00:44;;;;;;;12.87;6.90;;;4.80;99.90;;;5.54;100.00;98850.78;5028146;28;20459;-76
2021/11/24 06:03:13;;;;;;;13.90;5.73;;;4.90;99.90;;;5.54;100.00;98845.59;5024623;28;20490;-76
2021/11/24 06:05:43;;;;;;;10.00;6.40;;;4.90;99.90;;;5.50;100.00;98844.22;5017755;28;20455;-76
2021/11/24 06:08:12;;;;;;;12.20;6.90;;;4.80;99.90;;;5.52;100.00;98847.50;5032128;28;20504;-76
2021/11/24 06:10:41;;;;;;;11.83;6.10;;;4.80;99.90;;;5.52;100.00;98847.50;5031771;28;20470;-76
2021/11/24 06:13:09;;;;;;;13.43;6.37;;;4.80;99.90;;;5.50;100.00;98848.59;5027448;28;20862;-76
2021/11/24 06:15:38;;;;;;;12.33;6.30;;;4.80;99.90;;;5.50;100.00;98851.19;5036187;28;20458;-76
2021/11/24 06:18:08;;;;;;;13.57;5.97;;;4.70;99.90;;;5.53;100.00;98850.91;5034339;28;20506;-77
2021/11/24 06:20:39;;;;;;;10.57;7.10;;;4.90;99.90;;;5.53;100.00;98843.13;5035294;28;20864;-77
2021/11/24 06:23:10;;;;;;;10.83;6.60;;;4.80;99.90;;;5.55;100.00;98847.22;5039923;28;20538;-77
2021/11/24 06:25:39;;;;;;;11.77;5.93;;;4.90;99.90;;;5.54;100.00;98842.19;5035312;28;20442;-76
2021/11/24 06:28:08;;;;;;;11.00;6.47;;;4.80;99.90;;;5.56;100.00;98850.63;5031463;28;20465;-76
2021/11/24 06:30:37;;;;;;;17.70;6.50;;;4.90;99.90;;;5.54;100.00;98848.19;5035820;28;20938;-76
2021/11/24 06:33:06;;;;;;;21.87;7.20;;;4.90;99.90;;;5.55;100.00;98846.44;5038517;28;20454;-77
2021/11/24 06:35:34;;;;;;;15.00;6.40;;;5.00;99.90;;;5.52;100.00;98851.84;5036664;28;20790;-77
2021/11/24 06:38:03;;;;;;;12.43;6.00;;;4.90;99.90;;;5.51;100.00;98848.47;5037504;28;20458;-77
2021/11/24 06:40:34;;;;;;;10.87;5.80;;;4.90;99.90;;;5.51;100.00;98843.28;5034393;28;20504;-77
2021/11/24 06:43:02;;;;;;;10.10;6.00;;;4.90;99.90;;;5.46;100.00;98840.25;5032450;28;20513;-76
2021/11/24 06:45:31;;;;;;;11.43;6.80;;;4.80;99.90;;;5.48;100.00;98843.53;5034029;28;21005;-77
2021/11/24 06:48:01;;;;;;;9.90;6.40;;;4.80;99.90;;;5.47;100.00;98839.31;5034022;28;20961;-76
2021/11/24 06:50:29;;;;;;;16.17;7.20;;;4.80;99.90;;;5.48;100.00;98838.34;5036915;28;20453;-76
2021/11/24 06:52:58;;;;;;;12.20;6.87;;;4.80;99.90;;;5.48;100.00;98840.94;5033431;28;20445;-77
2021/11/24 06:55:27;;;;;;;13.57;6.80;;;4.80;99.90;;;5.49;100.00;98837.41;5036414;28;20850;-76
2021/11/24 06:57:57;;;;;;;12.03;6.80;;;4.80;99.90;;;5.51;100.00;98835.50;5033832;28;20855;-76
2021/11/24 07:00:26;;;;;;;9.97;6.30;;;4.90;99.90;;;5.49;100.00;98829.63;5033544;28;20517;-77
2021/11/24 07:02:55;;;;;;;12.10;7.10;;;4.90;99.90;;;5.48;100.00;98825.38;5029900;28;20549;-77
2021/11/24 07:05:24;;;;;;;9.37;5.80;;;4.80;99.90;;;5.47;100.00;98836.72;5036823;28;20524;-76
2021/11/24 07:07:52;;;;;;;9.00;5.53;;;4.80;99.90;;;5.49;100.00;98832.22;5033864;28;20446;-76
2021/11/24 07:10:21;;;;;;;11.37;7.60;;;4.90;99.90;;;5.49;100.00;98836.56;5028893;28;20446;-77
2021/11/24 07:12:50;;;;;;;10.37;6.07;;;4.80;99.90;;;5.51;100.00;98832.91;5039119;28;20480;-77
2021/11/24 07:15:20;;;;;;;10.57;6.07;;;4.80;99.90;;;5.50;100.00;98836.44;5044441;28;20449;-77
2021/11/24 07:17:48;;;;;;;8.97;5.90;;;4.80;99.90;;;5.50;100.00;98839.03;5029853;28;20466;-77
2021/11/24 07:20:17;;;;;;;10.47;6.13;;;4.90;99.90;;;5.51;100.00;98845.88;5033587;28;20500;-77
2021/11/24 07:22:46;;;;;;;11.67;6.77;;;4.90;99.90;;;5.50;100.00;98833.03;5038478;28;20535;-77
2021/11/24 07:25:15;;;;;;;10.40;5.60;;;4.80;99.90;;;5.50;100.00;98840.81;5038248;28;20574;-77
2021/11/24 07:27:44;;;;;;;11.90;6.60;;;4.90;99.90;;;5.48;100.00;98838.34;5041336;28;21023;-77
2021/11/24 07:30:21;;;;;;;10.50;5.10;;;4.80;99.90;;;5.51;100.00;98837.28;5038299;28;20811;-76
2021/11/24 07:32:50;;;;;;;17.43;6.70;;;4.80;99.90;;;5.52;100.00;98841.47;5039359;28;20519;-77
2021/11/24 07:35:19;;;;;;;17.87;5.70;;;4.80;99.90;;;5.52;100.00;98846.66;5032009;28;20555;-77
2021/11/24 07:37:48;;;;;;;8.43;5.07;;;4.80;99.90;;;5.52;100.00;98844.91;5042042;28;20953;-77
2021/11/24 07:40:18;;;;;;;12.60;6.17;;;4.80;99.90;;;5.51;100.00;98845.06;5032136;28;20454;-77
2021/11/24 07:42:47;;;;;;;10.43;5.40;;;4.90;99.90;;;5.50;100.00;98838.22;5036114;28;20512;-77
2021/11/24 07:45:16;;;;;;;7.40;5.17;;;4.90;99.90;;;5.48;100.00;98834.94;5038693;28;20481;-77
2021/11/24 07:47:46;;;;;;;8.97;5.20;;;4.90;99.90;;;5.50;100.00;98827.84;5035181;28;21008;-76
2021/11/24 07:50:15;;;;;;;7.23;4.27;;;4.90;99.90;;;5.49;100.00;98826.19;5039153;28;20441;-77
2021/11/24 07:52:43;;;;;;;8.30;5.00;;;4.80;99.90;;;5.50;100.00;98825.25;5033734;28;20867;-77
2021/11/24 07:55:12;;;;;;;8.13;5.17;;;4.80;99.90;;;5.51;100.00;98824.31;5040645;28;20441;-76
2021/11/24 07:57:41;;;;;;;6.57;5.20;;;4.80;99.90;;;5.52;100.00;98828.50;5037074;28;20876;-77
2021/11/24 08:00:11;;;;;;;9.23;5.30;;;4.90;99.90;;;5.52;100.00;98818.97;5041775;28;20838;-76
2021/11/24 08:02:41;;;;;;;6.53;4.60;;;4.90;99.90;;;5.51;100.00;98826.91;5040031;28;20461;-76
2021/11/24 08:05:12;;;;;;;10.43;5.10;;;4.80;99.90;;;5.55;100.00;98831.66;5040425;28;20504;-76
2021/11/24 08:07:55;;;;;;;7.10;4.70;;;4.90;99.90;;;5.55;100.00;98817.91;5035444;28;20992;-76
2021/11/24 08:10:24;;;;;;;9.90;4.77;;;5.00;99.90;;;5.50;100.00;98810.50;5025533;28;20450;-77
2021/11/24 08:12:53;;;;;;;10.77;5.13;;;4.90;99.90;;;5.49;100.00;98806.28;5033219;28;20974;-76
2021/11/24 08:15:23;;;;;;;6.97;4.30;;;4.90;99.90;;;5.50;100.00;98813.09;5039347;28;20981;-76
2021/11/24 08:17:51;;;;;;;7.33;4.80;;;4.90;99.90;;;5.54;100.00;98798.91;5035283;28;20517;-77
2021/11/24 08:20:21;;;;;;;5.93;4.17;;;4.90;99.90;;;5.55;100.00;98803.13;5040096;28;20469;-76
2021/11/24 08:22:50;;;;;;;14.90;5.30;;;4.90;99.90;;;5.58;100.00;98789.91;5040142;28;20485;-76
2021/11/24 08:25:22;;;;;;;9.30;4.10;;;4.90;99.90;;;5.61;100.00;98795.75;5036050;28;20503;-76
2021/11/24 08:27:50;;;;;;;8.03;4.93;;;4.90;99.90;;;5.63;100.00;98784.28;5039000;28;20985;-76
2021/11/24 08:30:20;;;;;;;6.90;4.80;;;5.00;99.90;;;5.61;100.00;98782.78;5036988;28;20459;-77
2021/11/24 08:32:50;;;;;;;7.27;3.90;;;4.90;99.90;;;5.66;100.00;98780.63;5040329;28;20480;-77
2021/11/24 08:35:22;;;;;;;6.90;4.00;;;5.00;99.90;;;5.65;100.00;98784.97;5029151;28;20508;-76
2021/11/24 08:37:51;;;;;;;7.00;4.07;;;5.00;99.90;;;5.66;100.00;98783.22;5038016;28;20442;-76
2021/11/24 08:40:20;;;;;;;15.47;4.53;;;4.90;99.90;;;5.71;100.00;98783.59;5036769;28;20438;-76
2021/11/24 08:42:51;;;;;;;5.70;4.00;;;5.00;99.90;;;5.72;100.00;98775.69;5028970;28;20462;-77
2021/11/24 08:45:20;;;;;;;4.90;3.33;;;5.10;99.90;;;5.76;100.00;98781.44;5037457;28;20555;-77
2021/11/24 08:47:49;;;;;;;6.83;4.37;;;5.10;99.90;;;5.73;100.00;98781.69;5036848;28;20492;-77
2021/11/24 08:50:18;;;;;;;4.60;3.60;;;5.20;99.90;;;5.71;100.00;98775.81;5036755;28;20441;-76
2021/11/24 08:52:49;;;;;;;6.30;4.33;;;5.20;99.90;;;5.73;100.00;98766.09;5034788;28;20439;-76
2021/11/24 08:55:19;;;;;;;15.77;3.80;;;5.20;99.90;;;5.74;100.00;98773.78;5037043;28;20510;-76
2021/11/24 08:57:48;;;;;;;7.73;4.10;;;5.10;99.90;;;5.75;100.00;98770.22;5034739;28;20468;-76
2021/11/24 09:00:22;;;;;;;4.63;3.17;;;5.20;99.90;;;5.74;100.00;98773.78;5034847;28;20594;-76
2021/11/24 09:02:52;;;;;;;5.97;3.70;;;5.20;99.90;;;5.78;100.00;98767.34;5029842;28;20516;-76
2021/11/24 09:05:25;;;;;;;7.10;3.40;;;5.20;99.90;;;5.82;100.00;98755.75;5038383;28;21020;-77
2021/11/24 09:07:59;;;;;;;6.03;2.97;;;5.20;99.90;;;5.85;100.00;98762.41;5036713;28;20453;-77
2021/11/24 09:10:29;;;;;;;7.30;4.13;;;5.30;99.90;;;5.86;100.00;98751.13;5022504;28;20461;-76
2021/11/24 09:13:10;;;;;;;6.53;3.83;;;5.30;99.90;;;5.85;100.00;98745.06;5040084;28;20445;-77
2021/11/24 09:15:40;;;;;;;6.03;3.83;;;5.30;99.90;;;5.89;100.00;98746.47;5037705;28;20458;-78
2021/11/24 09:18:37;;;;;;;5.20;3.20;;;5.40;99.90;;;5.90;100.00;98739.50;4951165;28;20464;-77
2021/11/24 09:21:06;;;;;;;6.90;3.23;;;5.40;99.90;;;5.91;100.00;98741.13;4951122;28;20466;-77
2021/11/24 09:23:38;;;;;;;5.90;3.33;;;5.30;99.90;;;5.95;100.00;98742.47;4951045;28;20452;-76
2021/11/24 09:26:25;;;;;;;4.33;2.90;;;5.40;99.90;;;5.93;100.00;98740.03;4951208;28;20513;-77
2021/11/24 09:28:54;;;;;;;8.07;2.67;;;5.40;99.90;;;5.96;100.00;98733.75;4949646;28;20876;-76
2021/11/24 09:31:24;;;;;;;6.97;3.23;;;5.40;99.90;;;5.98;100.00;98734.41;4955700;28;20451;-77
2021/11/24 09:33:59;;;;;;;2.73;2.13;;;5.50;99.90;;;5.99;100.00;98729.09;4955764;28;20457;-76
2021/11/24 09:36:31;;;;;;;7.13;3.43;;;5.50;99.90;;;6.02;100.00;98730.56;4953896;28;20476;-77
2021/11/24 09:39:05;;;;;;;4.30;2.80;;;5.50;99.90;;;6.02;100.00;98725.38;4952852;28;20521;-77
2021/11/24 09:41:44;;;;;;;5.50;2.67;;;5.60;99.90;;;6.05;100.00;98725.09;4951031;28;20514;-77
2021/11/24 09:44:14;;;;;;;2.40;2.20;;;5.60;99.90;;;6.07;100.00;98718.78;4950766;28;20461;-77
2021/11/24 09:46:46;;;;;;;7.87;2.93;;;5.60;99.90;;;6.10;100.00;98712.53;4953435;28;20504;-77
2021/11/24 09:49:18;;;;;;;3.73;2.40;;;5.60;99.90;;;6.12;100.00;98715.78;4952585;28;20493;-77
2021/11/24 09:51:54;;;;;;;2.87;1.80;;;5.60;99.90;;;6.10;100.00;98704.75;4961688;28;20484;-77
2021/11/24 09:54:26;;;;;;;4.40;2.10;;;5.70;99.90;;;6.09;100.00;98705.69;4989164;28;20488;-77
2021/11/24 09:57:19;;;;;;;1.87;1.67;;;5.60;99.90;;;6.03;100.00;98698.47;5032850;28;20516;-77
2021/11/24 10:00:09;;;;;;;2.40;1.90;;;5.60;99.90;;;6.01;100.00;98705.56;5032785;28;20817;-76
2021/11/24 10:02:38;;;;;;;2.10;1.90;;;5.60;99.90;;;5.99;100.00;98704.91;5036541;28;20889;-76
2021/11/24 10:05:08;;;;;;;1.97;1.70;;;5.60;99.90;;;6.02;100.00;98704.63;5038104;28;20480;-76
2021/11/24 10:07:39;;;;;;;2.33;1.47;;;5.60;99.90;;;6.01;100.00;98705.56;5020457;28;20967;-76
2021/11/24 10:10:10;;;;;;;3.77;2.17;;;5.60;99.90;;;6.03;100.00;98709.69;5028978;28;20454;-76
2021/11/24 10:12:38;;;;;;;3.87;1.80;;;5.60;99.90;;;5.96;100.00;98700.81;5037409;28;21052;-77
2021/11/24 10:15:12;;;;;;;2.43;1.70;;;5.50;99.90;;;5.98;100.00;98695.47;5042469;28;20969;-76
2021/11/24 10:17:43;;;;;;;2.83;2.00;;;5.50;99.90;;;5.94;100.00;98696.72;5034656;28;20553;-77
2021/11/24 10:20:13;;;;;;;4.10;2.17;;;5.50;99.90;;;5.91;100.00;98692.63;5037823;28;20883;-76
2021/11/24 10:22:43;;;;;;;2.17;1.90;;;5.50;99.90;;;5.93;100.00;98690.72;5035522;28;20842;-77
2021/11/24 10:25:17;;;;;;;6.73;2.23;;;5.50;99.90;;;5.92;100.00;98688.25;5035359;28;20499;-76
2021/11/24 10:27:49;;;;;;;2.00;1.80;;;5.50;99.90;;;5.94;100.00;98683.75;5037541;28;20504;-76
2021/11/24 10:30:31;;;;;;;2.30;2.07;;;5.50;99.90;;;5.96;100.00;98674.88;5033690;28;20449;-76
2021/11/24 10:33:19;;;;;;;4.70;2.13;;;5.50;99.90;;;5.98;100.00;98662.56;5037617;28;20445;-76
2021/11/24 10:36:08;;;;;;;1.73;1.60;;;5.50;99.90;;;6.00;100.00;98665.03;5034814;28;20488;-76
2021/11/24 10:38:44;;;;;;;3.83;1.80;;;5.50;99.90;;;5.97;100.00;98660.13;5026546;28;20454;-76